Los Angeles, CA (90073)

6:08 PM PDT on August 30, 2014 (GMT -0700)
Westwood | Change Station
CLOSE
Current Station
Personal Weather Station
Location: Los Angeles, CA
Elevation: 312 ft
Nearby Weather Stations

Elev 312 ft 34.06 °N, 118.45 °W | Updated 25 seconds ago

Clear
Clear
76.6 °F
Feels Like 78 °F
N
0.0
Wind Variable Wind from West
Gusts 7.0 mph

Today
High -- | Low -- °F
--% Chance of Precip.
Yesterday
High -- | Low -- °F
Precip. -- in
6:26 AM 7:22 PM
Waxing Crescent, 26% visible
Pressure 29.75 in
Visibility 10.0 miles
Clouds Clear
Heat Index 78 °F
Dew Point 67 °F
Humidity 71%
Rainfall 0.00 in
Snow Depth Not available.
UV 0.0 out of 12
Pollen 8.20 out of 12
Ozone Good
Flu Activity Not available.
METAR KSMO 310051Z 22006KT 10SM CLR 24/18 A2975 RMK AO2 SLP073 T02440183

More Conditions Fewer Conditions

Pressure 29.75 in
Visibility 10.0 miles
Clouds Clear
Heat Index 78 °F
Dew Point 67 °F
Humidity 71%
Rainfall 0.00 in
Snow Depth Not available.
UV 0.0 out of 12
Pollen 8.20 out of 12
Ozone Good
Flu Activity Not available.
METAR KSMO 310051Z 22006KT 10SM CLR 24/18 A2975 RMK AO2 SLP073 T02440183

More Conditions Fewer Conditions

10-Day Weather Forecast

Almanac

Astronomy

Aug. 30, 2014 Rise Set
Actual Time 6:26 AM PDT 7:22 PM PDT
Civil Twilight 6:00 AM PDT 7:47 PM PDT
Nautical Twilight 5:30 AM PDT 8:17 PM PDT
Astronomical Twilight 4:58 AM PDT 8:49 PM PDT
Moon 11:03 AM PDT (8/30) 10:14 PM PDT (8/30)
Length of Visible Light 13h 47m
Length of Day
12h 56m
Tomorrow will be 2m 1s shorter.
Waxing Crescent, 26% of the Moon is Illuminated
Today
Waxing Crescent
Sep 2
First Quarter
Sep 8
Full
Sep 15
Last Quarter
Sep 24
New

Today's Extremes

State Highs State Lows

Community

WunderPhotos

Upload Photos

1,748,707 photos uploaded!

Nearby

Air Quality

  Air Quality AQ Index Pollutant
Yesterday Good
OZONE
Current Good
OZONE
Sunday Moderate
OZONE
Sunday Good
PM10
Sunday Good
CO
Sunday Good
NO2

Snow Depth

Station Depth Elevation
Leavitt Meadows 0 in 7200 ft
Summit Meadow 0 in 9122 ft
Blue Lakes 0 in 8000 ft
Tahoe City Cross 0 in 6750 ft
CSS Lab 0 in 6900 ft

Earthquake Activity

City Distance Mag. Time & Date
Malibu, California 43 miles 2.5 8:11 AM PDT
2014-08-30
Minimum magnitude displayed is 2.5.

Coastal Water Temperatures

Place Temperature
Santa Monica Pier 70.0 °F
Los Angeles, CA 66.9 °F
La Jolla, CA 71.1 °F

Nearby Weather Stations